Saint Barthelemy, St. Barthelemy

8:47 AM AST on August 28, 2014 (GMT -0400)
ISTBARTH2 | Change Station
CLOSE
Current Station
Personal Weather Station
Location: St Barthelemy, ST BARTHELEMY
Elevation: 633 ft
Nearby Weather Stations

Elev 633 ft 17.90 °N, 62.81 °W | Updated 3 minutes ago

Partly Cloudy
Partly Cloudy
88.9 °F
Feels Like 111 °F
N
3.1
Wind Variable Wind from East
Gusts 6.0 mph

Today
High -- | Low -- °F
--% Chance of Precip.
Yesterday
High -- | Low -- °F
Precip. -- in
5:56 AM 6:28 PM
Waxing Crescent, 8% visible
Pressure 30.01 in
Visibility 6.2 miles
Clouds Few 2000 ft
Heat Index 111 °F
Dew Point 82 °F
Humidity 82%
Rainfall 0.00 in
Snow Depth Not available.
UV 3 out of 12
Pollen Not available.
Air Quality Not available.
Flu Activity Not available.
METAR TNCM 281200Z 11010KT 9999 FEW020 28/24 Q1016 A3001 NOSIG

More Conditions Fewer Conditions

Pressure 30.01 in
Visibility 6.2 miles
Clouds Few 2000 ft
Heat Index 111 °F
Dew Point 82 °F
Humidity 82%
Rainfall 0.00 in
Snow Depth Not available.
UV 3 out of 12
Pollen Not available.
Air Quality Not available.
Flu Activity Not available.
METAR TNCM 281200Z 11010KT 9999 FEW020 28/24 Q1016 A3001 NOSIG

More Conditions Fewer Conditions

10-Day Weather Forecast

Almanac

Astronomy

Aug. 28, 2014 Rise Set
Actual Time 5:56 AM AST 6:28 PM AST
Civil Twilight 5:34 AM AST 6:50 PM AST
Nautical Twilight 5:08 AM AST 7:16 PM AST
Astronomical Twilight 4:42 AM AST 7:42 PM AST
Moon 8:14 AM AST 8:23 PM AST
Length of Visible Light 13h 16m
Length of Day
12h 31m
Tomorrow will be 0m 58s shorter.
Waxing Crescent, 8% of the Moon is Illuminated
Today
Waxing Crescent
Sep 2
First Quarter
Sep 8
Full
Sep 15
Last Quarter
Sep 24
New

Community

WunderPhotos

Upload Photos

1,747,945 photos uploaded!

Nearby

Snow Depth

Not available.

Earthquake Activity

City Distance Mag. Time & Date
No recent earthquake activity has been reported nearby.
Minimum magnitude displayed is 2.5.

Coastal Water Temperatures

Place Temperature
No Stations Reporting

Nearby Weather Stations